sensor_id;sensor_type;location;lat;lon;timestamp;temperature;humidity
45060;DHT22;30799;49.060;9.312;2022-07-11T00:00:55;23.80;58.60
45060;DHT22;30799;49.060;9.312;2022-07-11T00:03:22;23.70;58.60
45060;DHT22;30799;49.060;9.312;2022-07-11T00:05:49;23.80;58.70
45060;DHT22;30799;49.060;9.312;2022-07-11T00:08:15;23.80;58.70
45060;DHT22;30799;49.060;9.312;2022-07-11T00:10:42;23.80;58.70
45060;DHT22;30799;49.060;9.312;2022-07-11T00:13:09;23.80;58.70
45060;DHT22;30799;49.060;9.312;2022-07-11T00:15:36;23.80;58.70
45060;DHT22;30799;49.060;9.312;2022-07-11T00:18:03;23.80;58.80
45060;DHT22;30799;49.060;9.312;2022-07-11T00:20:29;23.80;58.80
45060;DHT22;30799;49.060;9.312;2022-07-11T00:22:56;23.80;58.70
45060;DHT22;30799;49.060;9.312;2022-07-11T00:25:23;23.80;58.80
45060;DHT22;30799;49.060;9.312;2022-07-11T00:27:49;23.80;58.80
45060;DHT22;30799;49.060;9.312;2022-07-11T00:30:17;23.80;58.90
45060;DHT22;30799;49.060;9.312;2022-07-11T00:32:44;23.80;58.90
45060;DHT22;30799;49.060;9.312;2022-07-11T00:35:11;23.80;58.90
45060;DHT22;30799;49.060;9.312;2022-07-11T00:37:38;23.80;58.90
45060;DHT22;30799;49.060;9.312;2022-07-11T00:40:05;23.80;59.00
45060;DHT22;30799;49.060;9.312;2022-07-11T00:42:32;23.80;59.00
45060;DHT22;30799;49.060;9.312;2022-07-11T00:44:59;23.80;58.90
45060;DHT22;30799;49.060;9.312;2022-07-11T00:47:26;23.80;58.90
45060;DHT22;30799;49.060;9.312;2022-07-11T00:49:52;23.80;58.90
45060;DHT22;30799;49.060;9.312;2022-07-11T00:52:19;23.80;59.00
45060;DHT22;30799;49.060;9.312;2022-07-11T00:54:47;23.80;59.00
45060;DHT22;30799;49.060;9.312;2022-07-11T00:57:14;23.80;59.00
45060;DHT22;30799;49.060;9.312;2022-07-11T00:59:40;23.80;59.10
45060;DHT22;30799;49.060;9.312;2022-07-11T01:02:07;23.80;59.00
45060;DHT22;30799;49.060;9.312;2022-07-11T01:04:34;23.80;59.00
45060;DHT22;30799;49.060;9.312;2022-07-11T01:07:01;23.80;59.00
45060;DHT22;30799;49.060;9.312;2022-07-11T01:09:28;23.80;59.10
45060;DHT22;30799;49.060;9.312;2022-07-11T01:11:55;23.80;59.10
45060;DHT22;30799;49.060;9.312;2022-07-11T01:14:22;23.80;59.10
45060;DHT22;30799;49.060;9.312;2022-07-11T01:16:48;23.80;59.10
45060;DHT22;30799;49.060;9.312;2022-07-11T01:19:17;23.80;59.10
45060;DHT22;30799;49.060;9.312;2022-07-11T01:21:49;23.80;59.10
45060;DHT22;30799;49.060;9.312;2022-07-11T01:24:16;23.80;59.10
45060;DHT22;30799;49.060;9.312;2022-07-11T01:26:50;23.80;59.20
45060;DHT22;30799;49.060;9.312;2022-07-11T01:29:17;23.80;59.10
45060;DHT22;30799;49.060;9.312;2022-07-11T01:31:44;23.80;59.20
45060;DHT22;30799;49.060;9.312;2022-07-11T01:34:11;23.80;59.20
45060;DHT22;30799;49.060;9.312;2022-07-11T01:36:38;23.80;59.20
45060;DHT22;30799;49.060;9.312;2022-07-11T01:39:05;23.80;59.20
45060;DHT22;30799;49.060;9.312;2022-07-11T01:41:32;23.80;59.20
45060;DHT22;30799;49.060;9.312;2022-07-11T01:43:59;23.80;59.10
45060;DHT22;30799;49.060;9.312;2022-07-11T01:46:26;23.80;59.20
45060;DHT22;30799;49.060;9.312;2022-07-11T01:48:52;23.90;59.30
45060;DHT22;30799;49.060;9.312;2022-07-11T01:51:19;23.80;59.20
45060;DHT22;30799;49.060;9.312;2022-07-11T01:53:46;23.80;59.20
45060;DHT22;30799;49.060;9.312;2022-07-11T01:56:13;23.80;59.20
45060;DHT22;30799;49.060;9.312;2022-07-11T01:58:45;23.80;59.20
45060;DHT22;30799;49.060;9.312;2022-07-11T02:01:12;23.80;59.20
45060;DHT22;30799;49.060;9.312;2022-07-11T02:03:39;23.80;59.20
45060;DHT22;30799;49.060;9.312;2022-07-11T02:06:07;23.80;59.20
45060;DHT22;30799;49.060;9.312;2022-07-11T02:08:34;23.80;59.20
45060;DHT22;30799;49.060;9.312;2022-07-11T02:11:00;23.80;59.20
45060;DHT22;30799;49.060;9.312;2022-07-11T02:13:27;23.90;59.30
45060;DHT22;30799;49.060;9.312;2022-07-11T02:15:55;23.80;59.20
45060;DHT22;30799;49.060;9.312;2022-07-11T02:18:22;23.80;59.20
45060;DHT22;30799;49.060;9.312;2022-07-11T02:20:49;23.80;59.20
45060;DHT22;30799;49.060;9.312;2022-07-11T02:23:16;23.80;59.20
45060;DHT22;30799;49.060;9.312;2022-07-11T02:25:43;23.80;59.20
45060;DHT22;30799;49.060;9.312;2022-07-11T02:28:11;23.80;59.20
45060;DHT22;30799;49.060;9.312;2022-07-11T02:30:40;23.80;59.20
45060;DHT22;30799;49.060;9.312;2022-07-11T02:33:07;23.80;59.20
45060;DHT22;30799;49.060;9.312;2022-07-11T02:35:35;23.80;59.20
45060;DHT22;30799;49.060;9.312;2022-07-11T02:38:04;23.80;59.20
45060;DHT22;30799;49.060;9.312;2022-07-11T02:40:31;23.80;59.20
45060;DHT22;30799;49.060;9.312;2022-07-11T02:42:57;23.80;59.20
45060;DHT22;30799;49.060;9.312;2022-07-11T02:45:24;23.80;59.20
45060;DHT22;30799;49.060;9.312;2022-07-11T02:47:51;23.80;59.20
45060;DHT22;30799;49.060;9.312;2022-07-11T02:50:17;23.80;59.20
45060;DHT22;30799;49.060;9.312;2022-07-11T02:52:44;23.80;59.20
45060;DHT22;30799;49.060;9.312;2022-07-11T02:55:12;23.90;59.30
45060;DHT22;30799;49.060;9.312;2022-07-11T02:57:39;23.80;59.20
45060;DHT22;30799;49.060;9.312;2022-07-11T03:00:10;23.80;59.20
45060;DHT22;30799;49.060;9.312;2022-07-11T03:02:38;23.80;59.30
45060;DHT22;30799;49.060;9.312;2022-07-11T03:05:05;23.90;59.20
45060;DHT22;30799;49.060;9.312;2022-07-11T03:07:32;23.80;59.20
45060;DHT22;30799;49.060;9.312;2022-07-11T03:09:58;23.80;59.20
45060;DHT22;30799;49.060;9.312;2022-07-11T03:12:25;23.80;59.20
45060;DHT22;30799;49.060;9.312;2022-07-11T03:14:52;23.80;59.20
45060;DHT22;30799;49.060;9.312;2022-07-11T03:17:19;23.90;59.30
45060;DHT22;30799;49.060;9.312;2022-07-11T03:19:47;23.80;59.20
45060;DHT22;30799;49.060;9.312;2022-07-11T03:22:15;23.90;59.20
45060;DHT22;30799;49.060;9.312;2022-07-11T03:24:42;23.80;59.10
45060;DHT22;30799;49.060;9.312;2022-07-11T03:27:09;23.80;59.20
45060;DHT22;30799;49.060;9.312;2022-07-11T03:29:39;23.80;59.10
45060;DHT22;30799;49.060;9.312;2022-07-11T03:32:08;23.90;59.20
45060;DHT22;30799;49.060;9.312;2022-07-11T03:34:35;23.90;59.20
45060;DHT22;30799;49.060;9.312;2022-07-11T03:37:03;23.80;59.10
45060;DHT22;30799;49.060;9.312;2022-07-11T03:39:29;23.80;59.10
45060;DHT22;30799;49.060;9.312;2022-07-11T03:41:56;23.80;59.10
45060;DHT22;30799;49.060;9.312;2022-07-11T03:44:23;23.80;59.10
45060;DHT22;30799;49.060;9.312;2022-07-11T03:46:50;23.90;59.10
45060;DHT22;30799;49.060;9.312;2022-07-11T03:49:18;23.90;59.10
45060;DHT22;30799;49.060;9.312;2022-07-11T03:51:44;23.80;59.00
45060;DHT22;30799;49.060;9.312;2022-07-11T03:54:11;23.90;59.10
45060;DHT22;30799;49.060;9.312;2022-07-11T03:56:38;23.90;59.10
45060;DHT22;30799;49.060;9.312;2022-07-11T03:59:05;23.90;59.10
45060;DHT22;30799;49.060;9.312;2022-07-11T04:01:31;23.90;59.00
45060;DHT22;30799;49.060;9.312;2022-07-11T04:03:58;23.80;59.00
45060;DHT22;30799;49.060;9.312;2022-07-11T04:06:25;23.90;59.00
45060;DHT22;30799;49.060;9.312;2022-07-11T04:08:52;23.80;59.00
45060;DHT22;30799;49.060;9.312;2022-07-11T04:11:19;23.90;59.00
45060;DHT22;30799;49.060;9.312;2022-07-11T04:13:45;23.80;58.90
45060;DHT22;30799;49.060;9.312;2022-07-11T04:16:13;23.90;59.00
45060;DHT22;30799;49.060;9.312;2022-07-11T04:18:39;23.80;58.90
45060;DHT22;30799;49.060;9.312;2022-07-11T04:21:06;23.90;58.90
45060;DHT22;30799;49.060;9.312;2022-07-11T04:23:35;23.90;58.90
45060;DHT22;30799;49.060;9.312;2022-07-11T04:26:02;23.90;58.90
45060;DHT22;30799;49.060;9.312;2022-07-11T04:28:29;23.90;58.90
45060;DHT22;30799;49.060;9.312;2022-07-11T04:30:57;23.90;58.80
45060;DHT22;30799;49.060;9.312;2022-07-11T04:33:23;23.90;58.80
45060;DHT22;30799;49.060;9.312;2022-07-11T04:35:50;23.90;58.80
45060;DHT22;30799;49.060;9.312;2022-07-11T04:38:17;23.90;58.80
45060;DHT22;30799;49.060;9.312;2022-07-11T04:40:48;23.80;58.70
45060;DHT22;30799;49.060;9.312;2022-07-11T04:43:15;23.90;58.70
45060;DHT22;30799;49.060;9.312;2022-07-11T04:45:42;23.90;58.70
45060;DHT22;30799;49.060;9.312;2022-07-11T04:48:09;23.90;58.70
45060;DHT22;30799;49.060;9.312;2022-07-11T04:50:36;23.90;58.70
45060;DHT22;30799;49.060;9.312;2022-07-11T04:53:02;23.80;58.60
45060;DHT22;30799;49.060;9.312;2022-07-11T04:55:29;23.80;58.60
45060;DHT22;30799;49.060;9.312;2022-07-11T04:57:56;23.90;58.70
45060;DHT22;30799;49.060;9.312;2022-07-11T05:00:23;23.90;58.60
45060;DHT22;30799;49.060;9.312;2022-07-11T05:02:50;23.80;58.60
45060;DHT22;30799;49.060;9.312;2022-07-11T05:05:16;23.80;58.50
45060;DHT22;30799;49.060;9.312;2022-07-11T05:07:43;23.90;58.60
45060;DHT22;30799;49.060;9.312;2022-07-11T05:10:11;23.40;53.50
45060;DHT22;30799;49.060;9.312;2022-07-11T05:12:37;22.30;54.00
45060;DHT22;30799;49.060;9.312;2022-07-11T05:15:04;21.80;55.30
45060;DHT22;30799;49.060;9.312;2022-07-11T05:17:31;21.50;56.30
45060;DHT22;30799;49.060;9.312;2022-07-11T05:19:58;21.20;56.90
45060;DHT22;30799;49.060;9.312;2022-07-11T05:22:24;21.20;57.20
45060;DHT22;30799;49.060;9.312;2022-07-11T05:24:51;21.20;57.20
45060;DHT22;30799;49.060;9.312;2022-07-11T05:27:18;21.10;57.30
45060;DHT22;30799;49.060;9.312;2022-07-11T05:29:45;21.00;57.20
45060;DHT22;30799;49.060;9.312;2022-07-11T05:32:11;21.00;57.50
45060;DHT22;30799;49.060;9.312;2022-07-11T05:34:38;21.00;57.90
45060;DHT22;30799;49.060;9.312;2022-07-11T05:37:07;21.00;57.80
45060;DHT22;30799;49.060;9.312;2022-07-11T05:39:33;21.10;57.70
45060;DHT22;30799;49.060;9.312;2022-07-11T05:42:00;21.30;57.40
45060;DHT22;30799;49.060;9.312;2022-07-11T05:44:27;21.70;56.50
45060;DHT22;30799;49.060;9.312;2022-07-11T05:46:58;22.10;55.90
45060;DHT22;30799;49.060;9.312;2022-07-11T05:49:26;22.30;55.20
45060;DHT22;30799;49.060;9.312;2022-07-11T05:51:53;22.50;54.90
45060;DHT22;30799;49.060;9.312;2022-07-11T05:54:20;22.60;54.70
45060;DHT22;30799;49.060;9.312;2022-07-11T05:56:46;22.70;54.60
45060;DHT22;30799;49.060;9.312;2022-07-11T05:59:14;22.70;54.60
45060;DHT22;30799;49.060;9.312;2022-07-11T06:01:41;22.80;54.80
45060;DHT22;30799;49.060;9.312;2022-07-11T06:04:08;22.90;54.90
45060;DHT22;30799;49.060;9.312;2022-07-11T06:06:34;22.90;55.00
45060;DHT22;30799;49.060;9.312;2022-07-11T06:09:01;22.90;55.10
45060;DHT22;30799;49.060;9.312;2022-07-11T06:11:28;23.00;55.20
45060;DHT22;30799;49.060;9.312;2022-07-11T06:13:55;23.00;55.90
45060;DHT22;30799;49.060;9.312;2022-07-11T06:16:26;23.00;55.30
45060;DHT22;30799;49.060;9.312;2022-07-11T06:18:53;23.10;55.40
45060;DHT22;30799;49.060;9.312;2022-07-11T06:21:20;23.00;55.30
45060;DHT22;30799;49.060;9.312;2022-07-11T06:23:47;23.10;55.40
45060;DHT22;30799;49.060;9.312;2022-07-11T06:26:14;23.10;55.40
45060;DHT22;30799;49.060;9.312;2022-07-11T06:28:42;23.10;56.00
45060;DHT22;30799;49.060;9.312;2022-07-11T06:31:08;23.10;55.40
45060;DHT22;30799;49.060;9.312;2022-07-11T06:33:35;23.10;55.40
45060;DHT22;30799;49.060;9.312;2022-07-11T06:36:03;23.20;55.50
45060;DHT22;30799;49.060;9.312;2022-07-11T06:38:31;23.20;55.50
45060;DHT22;30799;49.060;9.312;2022-07-11T06:40:58;23.20;55.40
45060;DHT22;30799;49.060;9.312;2022-07-11T06:43:25;23.20;56.00
45060;DHT22;30799;49.060;9.312;2022-07-11T06:45:52;23.10;55.40
45060;DHT22;30799;49.060;9.312;2022-07-11T06:48:18;23.20;55.50
45060;DHT22;30799;49.060;9.312;2022-07-11T06:50:48;23.20;55.50
45060;DHT22;30799;49.060;9.312;2022-07-11T06:53:15;23.30;55.50
45060;DHT22;30799;49.060;9.312;2022-07-11T06:55:41;23.30;55.50
45060;DHT22;30799;49.060;9.312;2022-07-11T06:58:08;23.30;55.60
45060;DHT22;30799;49.060;9.312;2022-07-11T07:00:51;23.30;55.60
45060;DHT22;30799;49.060;9.312;2022-07-11T07:03:18;23.30;55.60
45060;DHT22;30799;49.060;9.312;2022-07-11T07:05:47;23.30;55.50
45060;DHT22;30799;49.060;9.312;2022-07-11T07:08:14;23.30;55.50
45060;DHT22;30799;49.060;9.312;2022-07-11T07:10:41;23.30;55.60
45060;DHT22;30799;49.060;9.312;2022-07-11T07:13:07;23.40;55.60
45060;DHT22;30799;49.060;9.312;2022-07-11T07:15:34;23.30;55.50
45060;DHT22;30799;49.060;9.312;2022-07-11T07:18:01;23.30;55.60
45060;DHT22;30799;49.060;9.312;2022-07-11T07:20:29;23.30;55.60
45060;DHT22;30799;49.060;9.312;2022-07-11T07:22:57;23.40;55.60
45060;DHT22;30799;49.060;9.312;2022-07-11T07:25:24;23.40;55.60
45060;DHT22;30799;49.060;9.312;2022-07-11T07:27:51;23.40;55.60
45060;DHT22;30799;49.060;9.312;2022-07-11T07:30:18;23.40;55.60
45060;DHT22;30799;49.060;9.312;2022-07-11T07:32:44;23.40;55.60
45060;DHT22;30799;49.060;9.312;2022-07-11T07:35:11;23.40;55.60
45060;DHT22;30799;49.060;9.312;2022-07-11T07:37:38;23.40;55.60
45060;DHT22;30799;49.060;9.312;2022-07-11T07:40:05;23.40;55.60
45060;DHT22;30799;49.060;9.312;2022-07-11T07:42:32;23.40;55.60
45060;DHT22;30799;49.060;9.312;2022-07-11T07:44:59;23.40;55.60
45060;DHT22;30799;49.060;9.312;2022-07-11T07:47:25;23.50;55.60
45060;DHT22;30799;49.060;9.312;2022-07-11T07:49:54;23.50;55.60
45060;DHT22;30799;49.060;9.312;2022-07-11T07:52:21;23.50;55.60
45060;DHT22;30799;49.060;9.312;2022-07-11T07:54:48;23.50;55.60
45060;DHT22;30799;49.060;9.312;2022-07-11T07:57:15;23.50;55.60
45060;DHT22;30799;49.060;9.312;2022-07-11T07:59:42;23.50;55.60
45060;DHT22;30799;49.060;9.312;2022-07-11T08:02:08;23.40;55.50
45060;DHT22;30799;49.060;9.312;2022-07-11T08:04:35;23.50;55.60
45060;DHT22;30799;49.060;9.312;2022-07-11T08:07:03;23.50;55.50
45060;DHT22;30799;49.060;9.312;2022-07-11T08:09:30;23.50;55.50
45060;DHT22;30799;49.060;9.312;2022-07-11T08:11:56;23.50;55.50
45060;DHT22;30799;49.060;9.312;2022-07-11T08:14:23;23.50;55.50
45060;DHT22;30799;49.060;9.312;2022-07-11T08:16:50;23.50;55.50
45060;DHT22;30799;49.060;9.312;2022-07-11T08:19:17;23.50;55.50
45060;DHT22;30799;49.060;9.312;2022-07-11T08:21:44;23.50;55.50
45060;DHT22;30799;49.060;9.312;2022-07-11T08:24:10;23.50;55.50
45060;DHT22;30799;49.060;9.312;2022-07-11T08:26:37;23.60;55.50
45060;DHT22;30799;49.060;9.312;2022-07-11T08:29:04;23.50;55.50
45060;DHT22;30799;49.060;9.312;2022-07-11T08:31:31;23.60;55.60
45060;DHT22;30799;49.060;9.312;2022-07-11T08:33:59;23.60;55.50
45060;DHT22;30799;49.060;9.312;2022-07-11T08:36:27;23.50;55.50
45060;DHT22;30799;49.060;9.312;2022-07-11T08:38:59;23.60;55.50
45060;DHT22;30799;49.060;9.312;2022-07-11T08:41:26;23.60;55.90
45060;DHT22;30799;49.060;9.312;2022-07-11T08:43:53;23.60;55.50
45060;DHT22;30799;49.060;9.312;2022-07-11T08:46:20;23.60;55.50
45060;DHT22;30799;49.060;9.312;2022-07-11T08:48:48;23.60;55.50
45060;DHT22;30799;49.060;9.312;2022-07-11T08:51:16;23.60;55.50
45060;DHT22;30799;49.060;9.312;2022-07-11T08:53:43;23.60;55.50
45060;DHT22;30799;49.060;9.312;2022-07-11T08:56:13;23.60;55.50
45060;DHT22;30799;49.060;9.312;2022-07-11T08:58:48;23.60;55.50
45060;DHT22;30799;49.060;9.312;2022-07-11T09:01:28;23.60;55.40
45060;DHT22;30799;49.060;9.312;2022-07-11T09:03:56;23.60;55.40
45060;DHT22;30799;49.060;9.312;2022-07-11T09:06:23;23.60;55.40
45060;DHT22;30799;49.060;9.312;2022-07-11T09:08:49;23.60;55.40
45060;DHT22;30799;49.060;9.312;2022-07-11T09:11:16;23.60;55.40
45060;DHT22;30799;49.060;9.312;2022-07-11T09:13:43;23.60;55.40
45060;DHT22;30799;49.060;9.312;2022-07-11T09:16:09;23.60;55.40
45060;DHT22;30799;49.060;9.312;2022-07-11T09:18:40;23.60;55.40
45060;DHT22;30799;49.060;9.312;2022-07-11T09:21:12;23.60;55.40
45060;DHT22;30799;49.060;9.312;2022-07-11T09:24:02;23.60;55.40
45060;DHT22;30799;49.060;9.312;2022-07-11T09:26:50;23.60;55.40
45060;DHT22;30799;49.060;9.312;2022-07-11T09:29:21;23.70;55.50
45060;DHT22;30799;49.060;9.312;2022-07-11T09:31:51;23.60;55.40
45060;DHT22;30799;49.060;9.312;2022-07-11T09:34:21;23.60;55.40
45060;DHT22;30799;49.060;9.312;2022-07-11T09:36:51;23.60;55.40
45060;DHT22;30799;49.060;9.312;2022-07-11T09:39:23;23.60;55.40
45060;DHT22;30799;49.060;9.312;2022-07-11T09:41:51;23.60;55.40
45060;DHT22;30799;49.060;9.312;2022-07-11T09:44:26;23.60;55.40
45060;DHT22;30799;49.060;9.312;2022-07-11T09:46:55;23.70;55.40
45060;DHT22;30799;49.060;9.312;2022-07-11T09:49:49;23.60;55.40
45060;DHT22;30799;49.060;9.312;2022-07-11T09:52:17;23.70;55.40
45060;DHT22;30799;49.060;9.312;2022-07-11T09:54:56;23.70;55.40
45060;DHT22;30799;49.060;9.312;2022-07-11T09:57:31;23.70;55.40
45060;DHT22;30799;49.060;9.312;2022-07-11T09:59:58;23.70;55.40
45060;DHT22;30799;49.060;9.312;2022-07-11T10:02:27;23.70;55.40
45060;DHT22;30799;49.060;9.312;2022-07-11T10:04:54;23.70;55.30
45060;DHT22;30799;49.060;9.312;2022-07-11T10:07:20;23.70;55.30
45060;DHT22;30799;49.060;9.312;2022-07-11T10:09:47;23.70;55.30
45060;DHT22;30799;49.060;9.312;2022-07-11T10:12:14;23.70;55.30
45060;DHT22;30799;49.060;9.312;2022-07-11T10:14:41;23.70;55.30
45060;DHT22;30799;49.060;9.312;2022-07-11T10:17:15;23.70;55.30
45060;DHT22;30799;49.060;9.312;2022-07-11T10:20:01;23.70;55.30
45060;DHT22;30799;49.060;9.312;2022-07-11T10:22:49;23.70;55.30
45060;DHT22;30799;49.060;9.312;2022-07-11T10:25:41;23.70;55.30
45060;DHT22;30799;49.060;9.312;2022-07-11T10:28:21;23.70;55.30
45060;DHT22;30799;49.060;9.312;2022-07-11T10:30:53;23.70;55.30
45060;DHT22;30799;49.060;9.312;2022-07-11T10:33:22;23.70;55.30
45060;DHT22;30799;49.060;9.312;2022-07-11T10:35:50;23.70;55.30
45060;DHT22;30799;49.060;9.312;2022-07-11T10:38:18;23.70;55.30
45060;DHT22;30799;49.060;9.312;2022-07-11T10:40:45;23.70;55.30
45060;DHT22;30799;49.060;9.312;2022-07-11T10:43:15;23.70;55.30
45060;DHT22;30799;49.060;9.312;2022-07-11T10:46:08;23.70;55.30
45060;DHT22;30799;49.060;9.312;2022-07-11T11:00:09;23.70;55.30
45060;DHT22;30799;49.060;9.312;2022-07-11T11:02:59;23.70;55.30
45060;DHT22;30799;49.060;9.312;2022-07-11T11:05:49;23.70;55.30
45060;DHT22;30799;49.060;9.312;2022-07-11T11:14:27;23.70;55.30
45060;DHT22;30799;49.060;9.312;2022-07-11T11:16:54;23.70;55.30
45060;DHT22;30799;49.060;9.312;2022-07-11T11:22:17;23.80;55.30
45060;DHT22;30799;49.060;9.312;2022-07-11T11:24:50;23.70;55.30
45060;DHT22;30799;49.060;9.312;2022-07-11T11:27:37;23.80;55.30
45060;DHT22;30799;49.060;9.312;2022-07-11T11:30:05;23.80;55.30
45060;DHT22;30799;49.060;9.312;2022-07-11T11:32:33;23.80;55.30
45060;DHT22;30799;49.060;9.312;2022-07-11T11:35:02;23.70;55.20
45060;DHT22;30799;49.060;9.312;2022-07-11T11:37:30;23.70;55.20
45060;DHT22;30799;49.060;9.312;2022-07-11T11:39:58;23.80;55.20
45060;DHT22;30799;49.060;9.312;2022-07-11T11:42:28;23.80;55.20
45060;DHT22;30799;49.060;9.312;2022-07-11T11:45:01;23.80;55.20
45060;DHT22;30799;49.060;9.312;2022-07-11T11:47:30;23.80;55.30
45060;DHT22;30799;49.060;9.312;2022-07-11T11:49:58;23.80;55.30
45060;DHT22;30799;49.060;9.312;2022-07-11T11:52:27;23.80;55.20
45060;DHT22;30799;49.060;9.312;2022-07-11T11:54:58;23.80;55.20
45060;DHT22;30799;49.060;9.312;2022-07-11T11:57:28;23.80;55.20
45060;DHT22;30799;49.060;9.312;2022-07-11T11:59:56;23.80;55.20
45060;DHT22;30799;49.060;9.312;2022-07-11T12:02:28;23.80;55.20
45060;DHT22;30799;49.060;9.312;2022-07-11T12:04:56;23.80;55.20
45060;DHT22;30799;49.060;9.312;2022-07-11T12:07:24;23.80;55.20
45060;DHT22;30799;49.060;9.312;2022-07-11T12:09:53;23.80;55.20
45060;DHT22;30799;49.060;9.312;2022-07-11T12:12:24;23.80;55.20
45060;DHT22;30799;49.060;9.312;2022-07-11T12:15:23;23.80;55.20
45060;DHT22;30799;49.060;9.312;2022-07-11T12:17:56;23.80;55.20
45060;DHT22;30799;49.060;9.312;2022-07-11T12:20:37;23.80;55.20
45060;DHT22;30799;49.060;9.312;2022-07-11T12:23:05;23.80;55.20
45060;DHT22;30799;49.060;9.312;2022-07-11T12:25:40;23.80;55.20
45060;DHT22;30799;49.060;9.312;2022-07-11T12:28:07;23.80;55.10
45060;DHT22;30799;49.060;9.312;2022-07-11T12:30:36;23.80;55.70
45060;DHT22;30799;49.060;9.312;2022-07-11T12:33:09;23.80;55.80
45060;DHT22;30799;49.060;9.312;2022-07-11T12:35:36;23.80;55.20
45060;DHT22;30799;49.060;9.312;2022-07-11T12:38:04;23.80;55.20
45060;DHT22;30799;49.060;9.312;2022-07-11T12:40:30;23.80;55.10
45060;DHT22;30799;49.060;9.312;2022-07-11T12:42:57;23.80;55.10
45060;DHT22;30799;49.060;9.312;2022-07-11T12:45:24;23.80;55.10
45060;DHT22;30799;49.060;9.312;2022-07-11T12:47:51;23.80;55.10
45060;DHT22;30799;49.060;9.312;2022-07-11T12:50:23;23.80;55.10
45060;DHT22;30799;49.060;9.312;2022-07-11T12:52:55;23.80;55.10
45060;DHT22;30799;49.060;9.312;2022-07-11T12:55:25;23.90;55.20
45060;DHT22;30799;49.060;9.312;2022-07-11T12:58:07;23.80;55.10
45060;DHT22;30799;49.060;9.312;2022-07-11T13:00:36;23.90;55.20
45060;DHT22;30799;49.060;9.312;2022-07-11T13:03:06;23.80;55.10
45060;DHT22;30799;49.060;9.312;2022-07-11T13:05:55;23.90;55.10
45060;DHT22;30799;49.060;9.312;2022-07-11T13:08:28;23.90;55.20
45060;DHT22;30799;49.060;9.312;2022-07-11T13:13:43;23.90;55.10
45060;DHT22;30799;49.060;9.312;2022-07-11T13:16:11;23.90;55.10
45060;DHT22;30799;49.060;9.312;2022-07-11T13:18:37;23.90;55.10
45060;DHT22;30799;49.060;9.312;2022-07-11T13:21:05;23.90;55.10
45060;DHT22;30799;49.060;9.312;2022-07-11T13:23:36;23.90;55.10
45060;DHT22;30799;49.060;9.312;2022-07-11T13:26:05;23.90;55.10
45060;DHT22;30799;49.060;9.312;2022-07-11T13:28:32;23.90;55.10
45060;DHT22;30799;49.060;9.312;2022-07-11T13:30:59;23.90;55.10
45060;DHT22;30799;49.060;9.312;2022-07-11T13:33:39;23.90;55.20
45060;DHT22;30799;49.060;9.312;2022-07-11T13:36:08;23.90;55.10
45060;DHT22;30799;49.060;9.312;2022-07-11T13:38:34;23.90;55.10
45060;DHT22;30799;49.060;9.312;2022-07-11T13:41:01;23.90;55.10
45060;DHT22;30799;49.060;9.312;2022-07-11T13:43:28;23.90;55.10
45060;DHT22;30799;49.060;9.312;2022-07-11T13:45:55;23.90;55.10
45060;DHT22;30799;49.060;9.312;2022-07-11T13:48:23;23.90;55.10
45060;DHT22;30799;49.060;9.312;2022-07-11T13:50:49;23.90;55.10
45060;DHT22;30799;49.060;9.312;2022-07-11T13:53:16;23.90;55.10
45060;DHT22;30799;49.060;9.312;2022-07-11T13:55:43;23.90;55.10
45060;DHT22;30799;49.060;9.312;2022-07-11T13:58:10;23.90;55.10
45060;DHT22;30799;49.060;9.312;2022-07-11T14:00:55;23.90;55.10
45060;DHT22;30799;49.060;9.312;2022-07-11T14:03:22;23.90;55.10
45060;DHT22;30799;49.060;9.312;2022-07-11T14:05:49;23.90;55.10
45060;DHT22;30799;49.060;9.312;2022-07-11T14:08:16;23.90;55.10
45060;DHT22;30799;49.060;9.312;2022-07-11T14:10:43;23.90;55.10
45060;DHT22;30799;49.060;9.312;2022-07-11T14:13:10;23.90;55.10
45060;DHT22;30799;49.060;9.312;2022-07-11T14:15:38;23.90;55.00
45060;DHT22;30799;49.060;9.312;2022-07-11T14:18:05;23.90;55.00
45060;DHT22;30799;49.060;9.312;2022-07-11T14:20:32;23.90;55.00
45060;DHT22;30799;49.060;9.312;2022-07-11T14:22:59;23.90;55.00
45060;DHT22;30799;49.060;9.312;2022-07-11T14:25:25;23.90;55.00
45060;DHT22;30799;49.060;9.312;2022-07-11T14:27:52;23.90;55.00
45060;DHT22;30799;49.060;9.312;2022-07-11T14:30:19;23.90;55.20
45060;DHT22;30799;49.060;9.312;2022-07-11T14:32:46;23.90;55.00
45060;DHT22;30799;49.060;9.312;2022-07-11T14:35:13;23.90;55.00
45060;DHT22;30799;49.060;9.312;2022-07-11T14:37:39;23.90;55.00
45060;DHT22;30799;49.060;9.312;2022-07-11T14:40:07;23.90;55.00
45060;DHT22;30799;49.060;9.312;2022-07-11T14:42:33;23.90;55.10
45060;DHT22;30799;49.060;9.312;2022-07-11T14:45:07;23.90;55.00
45060;DHT22;30799;49.060;9.312;2022-07-11T14:47:34;23.90;55.00
45060;DHT22;30799;49.060;9.312;2022-07-11T14:50:02;23.90;55.00
45060;DHT22;30799;49.060;9.312;2022-07-11T14:52:29;24.00;55.10
45060;DHT22;30799;49.060;9.312;2022-07-11T14:54:56;23.90;55.00
45060;DHT22;30799;49.060;9.312;2022-07-11T14:57:23;23.90;55.00
45060;DHT22;30799;49.060;9.312;2022-07-11T14:59:50;23.90;55.00
45060;DHT22;30799;49.060;9.312;2022-07-11T15:02:17;23.90;55.00
45060;DHT22;30799;49.060;9.312;2022-07-11T15:05:04;23.90;55.00
45060;DHT22;30799;49.060;9.312;2022-07-11T15:07:31;23.90;55.10
45060;DHT22;30799;49.060;9.312;2022-07-11T15:10:18;24.00;55.20
45060;DHT22;30799;49.060;9.312;2022-07-11T15:13:09;24.00;55.10
45060;DHT22;30799;49.060;9.312;2022-07-11T15:15:35;24.10;55.00
45060;DHT22;30799;49.060;9.312;2022-07-11T15:18:02;24.20;55.20
45060;DHT22;30799;49.060;9.312;2022-07-11T15:20:29;24.00;55.00
45060;DHT22;30799;49.060;9.312;2022-07-11T15:22:56;24.30;55.10
45060;DHT22;30799;49.060;9.312;2022-07-11T15:25:23;24.10;55.10
45060;DHT22;30799;49.060;9.312;2022-07-11T15:27:49;24.30;55.20
45060;DHT22;30799;49.060;9.312;2022-07-11T15:30:16;24.30;55.10
45060;DHT22;30799;49.060;9.312;2022-07-11T15:32:43;24.40;55.10
45060;DHT22;30799;49.060;9.312;2022-07-11T15:35:14;24.50;55.20
45060;DHT22;30799;49.060;9.312;2022-07-11T15:37:41;24.50;55.20
45060;DHT22;30799;49.060;9.312;2022-07-11T15:40:09;24.50;55.10
45060;DHT22;30799;49.060;9.312;2022-07-11T15:42:36;24.50;55.10
45060;DHT22;30799;49.060;9.312;2022-07-11T15:45:03;24.50;55.10
45060;DHT22;30799;49.060;9.312;2022-07-11T15:47:31;24.50;55.10
45060;DHT22;30799;49.060;9.312;2022-07-11T15:49:58;24.50;55.20
45060;DHT22;30799;49.060;9.312;2022-07-11T15:52:25;24.60;55.30
45060;DHT22;30799;49.060;9.312;2022-07-11T15:54:51;24.60;55.30
45060;DHT22;30799;49.060;9.312;2022-07-11T15:57:19;24.60;55.30
45060;DHT22;30799;49.060;9.312;2022-07-11T15:59:46;24.70;55.20
45060;DHT22;30799;49.060;9.312;2022-07-11T16:02:12;24.70;55.10